Home > Products > Valid Products > MTR

000
SAUS46 KMTR 030358
MTRMHS
METAR KMHS 030356Z AUTO VRB06KT 10SM OVC070 17/07 A2992 RMK AO2
SLP127 T01720067





000
SAUS46 KMTR 030157
MTRMHS
METAR KMHS 030156Z AUTO VRB04KT 10SM FEW090 19/04 A2988 RMK AO2
SLP121 T01940044





000
SAUS46 KMTR 022358
MTRMHS
METAR KMHS 022356Z AUTO 00000KT 10SM BKN090 25/07 A2986 RMK AO2
SLP106 T02500067 10267 20217 56009





000
SAUS46 KMTR 022358
MTRMHS
METAR KMHS 022356Z AUTO 00000KT 10SM BKN090 25/07 A2986 RMK AO2
SLP106 T02500067 10267 20217 56009





000
SAUS46 KMTR 022257
MTRMHS
METAR KMHS 022256Z AUTO 10SM CLR 25/07 A2986 RMK AO2 SLP107
T02500067





000
SAUS46 KMTR 022157
MTRMHS
METAR KMHS 022156Z AUTO 10SM CLR 26/07 A2988 RMK AO2 SLP110
T02610067





000
SAUS46 KMTR 022057
MTRMHS
METAR KMHS 022056Z AUTO VRB05KT 9SM CLR 26/06 A2989 RMK AO2 SLP114
T02560061 58019





000
SAUS46 KMTR 021458
MTRMHS
METAR KMHS 021456Z AUTO 00000KT 10SM CLR 09/04 A2998 RMK AO2 SLP152
T00890039 53007





000
SAUS46 KMTR 021257
MTRMHS
METAR KMHS 021256Z AUTO 00000KT 10SM CLR 06/02 A2996 RMK AO2 SLP141
T00610022





000
SAUS46 KMTR 021257
MTRMHS
METAR KMHS 021256Z AUTO 00000KT 10SM CLR 06/02 A2996 RMK AO2 SLP141
T00610022





000
SAUS46 KMTR 021158
MTRMHS
METAR KMHS 021156Z AUTO 00000KT 10SM CLR 08/04 A2995 RMK AO2 SLP137
T00780039 10139 20072 51004





000
SAUS46 KMTR 021158
MTRMHS
METAR KMHS 021156Z AUTO 00000KT 10SM CLR 08/04 A2995 RMK AO2 SLP137
T00780039 10139 20072 51004





000
SAUS46 KMTR 020957
MTRMHS
METAR KMHS 020956Z AUTO 00000KT 10SM CLR 10/06 A2995 RMK AO2 SLP129
T01000056





000
SAUS46 KMTR 020757
MTRMHS
METAR KMHS 020756Z AUTO 00000KT 10SM CLR 11/06 A2994 RMK AO2 SLP128
T01060061 403000078





000
SAUS46 KMTR 020657
MTRMHS
METAR KMHS 020656Z AUTO 00000KT 10SM CLR 12/07 A2994 RMK AO2 SLP128
T01220067





000
SAUS46 KMTR 020657
MTRMHS
METAR KMHS 020656Z AUTO 00000KT 10SM CLR 12/07 A2994 RMK AO2 SLP128
T01220067





000
SAUS46 KMTR 020557
MTRMHS
METAR KMHS 020556Z AUTO 00000KT 10SM CLR 13/07 A2994 RMK AO2 SLP127
T01330067 10267 20133 51008





000
SAUS46 KMTR 020557
MTRMHS
METAR KMHS 020556Z AUTO 00000KT 10SM CLR 13/07 A2994 RMK AO2 SLP127
T01330067 10267 20133 51008





000
SAUS46 KMTR 020457
MTRMHS
METAR KMHS 020456Z AUTO 00000KT 10SM CLR 18/05 A2994 RMK AO2 SLP127
T01780050





000
SAUS46 KMTR 020357
MTRMHS
METAR KMHS 020356Z AUTO 00000KT 10SM CLR 17/07 A2994 RMK AO2 SLP129
T01720067





000
SAUS46 KMTR 020257
MTRMHS
METAR KMHS 020256Z AUTO 00000KT 10SM CLR 19/08 A2991 RMK AO2 SLP126
T01940083 53008





000
SAUS46 KMTR 020057
MTRMHS
METAR KMHS 020056Z AUTO 00000KT 10SM CLR 26/08 A2989 RMK AO2 SLP115
T02560078





000
SAUS46 KMTR 012357
MTRMHS
METAR KMHS 012356Z AUTO VRB03KT 10SM CLR 27/07 A2989 RMK AO2 SLP111
T02670072 10300 20250 56012





000
SAUS46 KMTR 012057
MTRMHS
METAR KMHS 012056Z AUTO 00000KT 10SM CLR 29/08 A2993 RMK AO2 SLP119
T02890078 57015





000
SAUS46 KMTR 011957
MTRMHS
METAR KMHS 011956Z AUTO 00000KT 10SM CLR 28/07 A2994 RMK AO2 SLP127
T02780067





000
SAUS46 KMTR 011657
MTRMHS
METAR KMHS 011656Z AUTO 00000KT 10SM CLR 21/08 A2998 RMK AO2 SLP139
T02110078





000
SAUS46 KMTR 011657
MTRMHS
METAR KMHS 011656Z AUTO 00000KT 10SM CLR 21/08 A2998 RMK AO2 SLP139
T02110078





000
SAUS46 KMTR 011557
MTRMHS
METAR KMHS 011556Z AUTO VRB03KT 10SM CLR 18/08 A2999 RMK AO2 SLP146
T01780083





000
SAUS46 KMTR 011458
MTRMHS
METAR KMHS 011456Z AUTO 00000KT 10SM CLR 12/06 A2999 RMK AO2 SLP151
T01220061 56004





000
SAUS46 KMTR 011357
MTRMHS
METAR KMHS 011356Z AUTO 00000KT 10SM CLR 09/04 A2999 RMK AO2 SLP153
T00890044





000
SAUS46 KMTR 011257
MTRMHS
METAR KMHS 011256Z AUTO 00000KT 10SM CLR 08/04 A2999 RMK AO2 SLP151
T00830044





000
SAUS46 KMTR 011257
MTRMHS
METAR KMHS 011256Z AUTO 00000KT 10SM CLR 08/04 A2999 RMK AO2 SLP151
T00830044





000
SAUS46 KMTR 011057
MTRMHS
METAR KMHS 011056Z AUTO 00000KT 10SM CLR 10/04 A3001 RMK AO2 SLP151
T01000044





000
SAUS46 KMTR 011057
MTRMHS
METAR KMHS 011056Z AUTO 00000KT 10SM CLR 10/04 A3001 RMK AO2 SLP151
T01000044





000
SAUS46 KMTR 010857
MTRMHS
METAR KMHS 010856Z AUTO 00000KT 10SM CLR 12/05 A3000 RMK AO2 SLP150
T01220050 51003





000
SAUS46 KMTR 010857
MTRMHS
METAR KMHS 010856Z AUTO 00000KT 10SM CLR 12/05 A3000 RMK AO2 SLP150
T01220050 51003





000
SAUS46 KMTR 010657
MTRMHS
METAR KMHS 010656Z AUTO 06004KT 10SM CLR 15/04 A3000 RMK AO2 SLP147
T01500044





000
SAUS46 KMTR 010657
MTRMHS
METAR KMHS 010656Z AUTO 06004KT 10SM CLR 15/04 A3000 RMK AO2 SLP147
T01500044





000
SAUS46 KMTR 010557
MTRMHS
METAR KMHS 010556Z AUTO VRB03KT 10SM CLR 18/04 A2999 RMK AO2 SLP145
T01830039 10261 20183 50011





000
SAUS46 KMTR 010557
MTRMHS
METAR KMHS 010556Z AUTO VRB03KT 10SM CLR 18/04 A2999 RMK AO2 SLP145
T01830039 10261 20183 50011





000
SAUS46 KMTR 010457
MTRMHS
METAR KMHS 010456Z AUTO VRB03KT 10SM CLR 19/04 A2999 RMK AO2 SLP149
T01940044





000
SAUS46 KMTR 010457
MTRMHS
METAR KMHS 010456Z AUTO VRB03KT 10SM CLR 19/04 A2999 RMK AO2 SLP149
T01940044





000
SAUS46 KMTR 010357
MTRMHS
METAR KMHS 010356Z AUTO VRB05KT 10SM CLR 19/06 A2998 RMK AO2 SLP144
T01940056





000
SAUS46 KMTR 010257
MTRMHS
METAR KMHS 010256Z AUTO VRB03KT 10SM CLR 21/05 A2996 RMK AO2 SLP140
T02060050 55001





000
SAUS46 KMTR 010157
MTRMHS
METAR KMHS 010156Z AUTO VRB03KT 10SM CLR 23/06 A2995 RMK AO2 SLP138
T02330056





000
SAUS46 KMTR 010057
MTRMHS
METAR KMHS 010056Z AUTO VRB05KT 10SM CLR 26/04 A2996 RMK AO2 SLP136
T02560039





000
SAUS46 KMTR 312357
MTRMHS
METAR KMHS 312356Z AUTO VRB04KT 10SM CLR 26/06 A2996 RMK AO2 SLP137
T02610056 10283 20200 56018





000
SAUS46 KMTR 312357
MTRMHS
METAR KMHS 312356Z AUTO VRB04KT 10SM CLR 26/06 A2996 RMK AO2 SLP137
T02610056 10283 20200 56018





000
SAUS46 KMTR 312157
MTRMHS
METAR KMHS 312156Z AUTO VRB05KT 10SM CLR 27/06 A3000 RMK AO2 SLP146
T02720056





000
SAUS46 KMTR 312057
MTRMHS
METAR KMHS 312056Z AUTO VRB04KT 10SM CLR 26/07 A3002 RMK AO2 SLP155
T02560072 56017





000
SAUS46 KMTR 311957
MTRMHS
METAR KMHS 311956Z AUTO VRB06KT 10SM CLR 24/08 A3003 RMK AO2 SLP159
T02440083





000
SAUS46 KMTR 311957
MTRMHS
METAR KMHS 311956Z AUTO VRB06KT 10SM CLR 24/08 A3003 RMK AO2 SLP159
T02440083





000
SAUS46 KMTR 311857
MTRMHS
METAR KMHS 311856Z AUTO VRB06KT 10SM CLR 22/08 A3006 RMK AO2 SLP171
T02220083





000
SAUS46 KMTR 311857
MTRMHS
METAR KMHS 311856Z AUTO VRB06KT 10SM CLR 22/08 A3006 RMK AO2 SLP171
T02220083





000
SAUS46 KMTR 311757
MTRMHS
METAR KMHS 311756Z AUTO 29006KT 10SM CLR 20/08 A3007 RMK AO2 SLP179
T02000083 10200 20089 58005





000
SAUS46 KMTR 311757
MTRMHS
METAR KMHS 311756Z AUTO 29006KT 10SM CLR 20/08 A3007 RMK AO2 SLP179
T02000083 10200 20089 58005





000
SAUS46 KMTR 311657
MTRMHS
METAR KMHS 311656Z AUTO VRB05KT 10SM CLR 17/08 A3008 RMK AO2 SLP183
T01720078





000
SAUS46 KMTR 311657
MTRMHS
METAR KMHS 311656Z AUTO VRB05KT 10SM CLR 17/08 A3008 RMK AO2 SLP183
T01720078





000
SAUS46 KMTR 311557
MTRMHS
METAR KMHS 311556Z AUTO VRB04KT 10SM CLR 16/08 A3009 RMK AO2 SLP184
T01610078





000
SAUS46 KMTR 311457
MTRMHS
METAR KMHS 311456Z AUTO 00000KT 10SM CLR 11/07 A3009 RMK AO2 SLP191
T01110067 51001





000
SAUS46 KMTR 311357
MTRMHS
METAR KMHS 311356Z AUTO 00000KT 10SM CLR 09/06 A3009 RMK AO2 SLP191
T00890061





000
SAUS46 KMTR 311257
MTRMHS
METAR KMHS 311256Z AUTO 00000KT 10SM CLR 09/06 A3009 RMK AO2 SLP187
T00940061





000
SAUS46 KMTR 311157
MTRMHS
METAR KMHS 311156Z AUTO 00000KT 10SM CLR 09/06 A3009 RMK AO2 SLP185
T00940061 10144 20094 55003





000
SAUS46 KMTR 311157
MTRMHS
METAR KMHS 311156Z AUTO 00000KT 10SM CLR 09/06 A3009 RMK AO2 SLP185
T00940061 10144 20094 55003





000
SAUS46 KMTR 311059
MTRMHS
METAR KMHS 311056Z AUTO 00000KT 10SM CLR 10/06 A3009 RMK AO2 SLP183
T01000061





000
SAUS46 KMTR 311059
MTRMHS
METAR KMHS 311056Z AUTO 00000KT 10SM CLR 10/06 A3009 RMK AO2 SLP183
T01000061





000
SAUS46 KMTR 310958
MTRMHS
METAR KMHS 310956Z AUTO 00000KT 10SM CLR 11/07 A3009 RMK AO2 SLP182
T01110067





000
SAUS46 KMTR 310857
MTRMHS
METAR KMHS 310856Z AUTO 00000KT 10SM CLR 12/07 A3010 RMK AO2 SLP184
T01220067 50001





000
SAUS46 KMTR 310857
MTRMHS
METAR KMHS 310856Z AUTO 00000KT 10SM CLR 12/07 A3010 RMK AO2 SLP184
T01220067 50001





000
SAUS46 KMTR 310757
MTRMHS
METAR KMHS 310756Z AUTO 00000KT 10SM CLR 13/07 A3010 RMK AO2 SLP186
T01280067 402560050





000
SAUS46 KMTR 310757
MTRMHS
METAR KMHS 310756Z AUTO 00000KT 10SM CLR 13/07 A3010 RMK AO2 SLP186
T01280067 402560050





000
SAUS46 KMTR 310657
MTRMHS
METAR KMHS 310656Z AUTO VRB03KT 10SM CLR 13/07 A3010 RMK AO2 SLP186
T01330067





000
SAUS46 KMTR 310557
MTRMHS
METAR KMHS 310556Z AUTO 00000KT 10SM CLR 14/07 A3009 RMK AO2 SLP186
T01440067 10239 20144 50012





000
SAUS46 KMTR 310557
MTRMHS
METAR KMHS 310556Z AUTO 00000KT 10SM CLR 14/07 A3009 RMK AO2 SLP186
T01440067 10239 20144 50012





000
SAUS46 KMTR 310457
MTRMHS
METAR KMHS 310456Z AUTO VRB03KT 10SM CLR 16/07 A3010 RMK AO2 SLP190
T01560072





000
SAUS46 KMTR 310457
MTRMHS
METAR KMHS 310456Z AUTO VRB03KT 10SM CLR 16/07 A3010 RMK AO2 SLP190
T01560072





    US Dept of Commerce
    National Oceanic and Atmospheric Administration
    National Weather Service
    1325 East West Highway
    Silver Spring, MD 20910
    Page Author: NWS Internet Services Team
Disclaimer
Information Quality
Credits
Glossary
Privacy Policy
Freedom of Information Act (FOIA)
About Us
Career Opportunities